createdAt,value
2018-04-15T00:00:06.297Z,41.83
2018-04-15T00:02:33.864Z,40.00
2018-04-15T00:05:01.472Z,40.60
2018-04-15T00:07:29.032Z,40.30
2018-04-15T00:09:56.848Z,44.03
2018-04-15T00:12:24.426Z,42.00
2018-04-15T00:14:52.008Z,44.67
2018-04-15T00:17:20.366Z,43.00
2018-04-15T00:19:47.955Z,43.30
2018-04-15T00:22:16.314Z,40.80
2018-04-15T00:24:43.878Z,39.73
2018-04-15T00:27:12.224Z,40.27
2018-04-15T00:29:39.784Z,43.37
2018-04-15T00:32:07.360Z,41.23
2018-04-15T00:34:34.979Z,46.10
2018-04-15T00:37:02.548Z,40.60
2018-04-15T00:39:30.126Z,40.60
2018-04-15T00:41:57.847Z,40.47
2018-04-15T00:44:25.415Z,43.67
2018-04-15T00:46:52.989Z,42.80
2018-04-15T00:49:20.545Z,42.37
2018-04-15T00:51:48.131Z,43.40
2018-04-15T00:54:17.471Z,41.37
2018-04-15T00:56:45.834Z,43.10
2018-04-15T00:59:13.394Z,41.90
2018-04-15T01:01:40.976Z,40.77
2018-04-15T01:04:09.309Z,40.50
2018-04-15T01:06:36.911Z,43.90
2018-04-15T01:09:05.997Z,42.43
2018-04-15T01:11:33.585Z,42.13
2018-04-15T01:14:01.171Z,42.83
2018-04-15T01:16:28.743Z,39.80
2018-04-15T01:18:56.355Z,41.30
2018-04-15T01:21:24.703Z,40.73
2018-04-15T01:23:52.283Z,40.40
2018-04-15T01:26:19.851Z,42.23
2018-04-15T01:28:48.199Z,43.70
2018-04-15T01:31:15.776Z,43.60
2018-04-15T01:33:43.416Z,44.93
2018-04-15T01:36:11.102Z,43.20
2018-04-15T01:38:38.668Z,42.20
2018-04-15T01:41:06.232Z,43.23
2018-04-15T01:43:33.821Z,40.37
2018-04-15T01:46:01.488Z,42.30
2018-04-15T01:48:29.103Z,44.10
2018-04-15T01:50:56.675Z,42.30
2018-04-15T01:53:24.277Z,42.67
2018-04-15T01:55:51.824Z,43.17
2018-04-15T01:58:19.426Z,44.67
2018-04-15T02:00:47.016Z,43.70
2018-04-15T02:03:14.620Z,41.67
2018-04-15T02:05:42.196Z,44.73
2018-04-15T02:08:09.860Z,46.30
2018-04-15T02:10:37.415Z,46.30
2018-04-15T02:13:05.004Z,46.07
2018-04-15T02:15:32.589Z,44.33
2018-04-15T02:18:00.148Z,45.50
2018-04-15T02:20:27.740Z,45.87
2018-04-15T02:22:55.307Z,45.70
2018-04-15T02:25:22.929Z,45.37
2018-04-15T02:27:50.501Z,41.80
2018-04-15T02:30:18.146Z,43.60
2018-04-15T02:32:45.720Z,44.47
2018-04-15T02:35:13.304Z,45.10
2018-04-15T02:37:41.627Z,45.20
2018-04-15T02:40:09.232Z,47.67
2018-04-15T02:42:37.579Z,44.17
2018-04-15T02:45:05.157Z,45.60
2018-04-15T02:47:32.740Z,46.30
2018-04-15T02:50:01.096Z,44.20
2018-04-15T02:52:28.665Z,46.63
2018-04-15T02:54:57.022Z,44.10
2018-04-15T02:57:24.610Z,45.40
2018-04-15T02:59:52.996Z,45.30
2018-04-15T03:02:21.363Z,45.10
2018-04-15T03:04:48.935Z,46.00
2018-04-15T03:07:17.299Z,42.80
2018-04-15T03:09:44.908Z,45.90
2018-04-15T03:12:12.485Z,44.40
2018-04-15T03:14:40.031Z,42.73
2018-04-15T03:17:07.628Z,47.10
2018-04-15T03:19:35.203Z,47.70
2018-04-15T03:22:02.785Z,44.40
2018-04-15T03:24:31.132Z,47.57
2018-04-15T03:26:58.721Z,43.37
2018-04-15T03:29:27.543Z,47.40
2018-04-15T03:31:55.112Z,46.43
2018-04-15T03:34:22.684Z,47.57
2018-04-15T03:36:50.268Z,44.97
2018-04-15T03:39:17.842Z,47.27
2018-04-15T03:41:46.324Z,45.00
2018-04-15T03:44:13.939Z,43.47
2018-04-15T03:46:41.529Z,44.97
2018-04-15T03:49:09.117Z,43.83
2018-04-15T03:51:37.584Z,43.03
2018-04-15T03:54:05.177Z,45.50
2018-04-15T03:56:32.850Z,44.13
2018-04-15T03:59:00.427Z,43.57
2018-04-15T04:01:28.009Z,45.87
2018-04-15T04:03:55.597Z,47.17
2018-04-15T04:06:23.173Z,44.30
2018-04-15T04:08:51.532Z,41.73
2018-04-15T04:11:19.102Z,43.53
2018-04-15T04:13:46.680Z,44.27
2018-04-15T04:16:15.061Z,40.00
2018-04-15T04:18:54.461Z,42.30
2018-04-15T04:21:33.796Z,42.27
2018-04-15T04:24:27.037Z,38.87
2018-04-15T04:26:54.615Z,36.63
2018-04-15T04:29:22.207Z,42.37
2018-04-15T04:31:50.576Z,40.13
2018-04-15T04:34:18.146Z,38.50
2018-04-15T04:36:46.511Z,36.77
2018-04-15T04:39:14.223Z,35.47
2018-04-15T04:41:41.800Z,33.30
2018-04-15T04:44:09.404Z,32.27
2018-04-15T04:46:36.991Z,31.17
2018-04-15T04:49:04.578Z,32.73
2018-04-15T04:51:32.166Z,31.10
2018-04-15T04:53:59.737Z,29.57
2018-04-15T04:56:27.315Z,30.57
2018-04-15T04:58:55.644Z,30.27
2018-04-15T05:01:23.220Z,29.90
2018-04-15T05:03:50.800Z,30.30
2018-04-15T05:06:18.380Z,27.70
2018-04-15T05:08:46.717Z,29.27
2018-04-15T05:11:14.337Z,28.67
2018-04-15T05:13:41.885Z,26.07
2018-04-15T05:16:10.259Z,26.23
2018-04-15T05:18:38.585Z,25.63
2018-04-15T05:21:06.168Z,24.50
2018-04-15T05:23:33.863Z,23.00
2018-04-15T05:26:01.443Z,23.70
2018-04-15T05:28:29.018Z,22.47
2018-04-15T05:30:56.602Z,21.60
2018-04-15T05:33:24.192Z,22.50
2018-04-15T05:35:51.776Z,19.77
2018-04-15T05:38:20.120Z,20.87
2018-04-15T05:40:47.698Z,18.47
2018-04-15T05:43:15.276Z,20.67
2018-04-15T05:45:43.608Z,21.60
2018-04-15T05:48:11.208Z,23.70
2018-04-15T05:50:39.545Z,20.60
2018-04-15T05:53:07.128Z,19.70
2018-04-15T05:55:34.715Z,20.90
2018-04-15T05:58:03.100Z,20.70
2018-04-15T06:00:31.448Z,20.40
2018-04-15T06:02:59.920Z,25.53
2018-04-15T06:05:27.504Z,19.73
2018-04-15T06:07:55.072Z,21.37
2018-04-15T06:10:23.409Z,20.13
2018-04-15T06:12:51.049Z,17.57
2018-04-15T06:15:18.624Z,17.87
2018-04-15T06:17:46.207Z,18.13
2018-04-15T06:20:14.274Z,17.30
2018-04-15T06:22:42.027Z,18.00
2018-04-15T06:25:09.601Z,15.70
2018-04-15T06:27:37.174Z,16.57
2018-04-15T06:30:04.752Z,15.07
2018-04-15T06:32:33.087Z,12.87
2018-04-15T06:35:00.710Z,15.37
2018-04-15T06:37:29.037Z,14.17
2018-04-15T06:39:56.623Z,12.70
2018-04-15T06:42:24.198Z,12.70
2018-04-15T06:44:52.545Z,13.07
2018-04-15T06:47:20.108Z,12.43
2018-04-15T06:49:47.712Z,12.43
2018-04-15T06:52:15.271Z,11.27
2018-04-15T06:54:42.869Z,11.63
2018-04-15T06:57:10.436Z,11.80
2018-04-15T06:59:38.031Z,12.50
2018-04-15T07:02:06.360Z,12.27
2018-04-15T07:04:33.928Z,10.97
2018-04-15T07:07:01.523Z,9.73
2018-04-15T07:09:29.146Z,11.17
2018-04-15T07:11:56.860Z,11.20
2018-04-15T07:14:24.467Z,8.63
2018-04-15T07:16:52.063Z,8.93
2018-04-15T07:19:19.623Z,8.20
2018-04-15T07:21:47.294Z,7.90
2018-04-15T07:24:14.832Z,8.00
2018-04-15T07:26:42.430Z,7.93
2018-04-15T07:29:10.845Z,8.60
2018-04-15T07:31:38.427Z,8.20
2018-04-15T07:34:05.985Z,7.50
2018-04-15T07:36:33.777Z,7.40
2018-04-15T07:39:02.052Z,6.73
2018-04-15T07:41:29.640Z,8.07
2018-04-15T07:43:57.988Z,7.20
2018-04-15T07:46:25.569Z,7.00
2018-04-15T07:48:53.147Z,7.50
2018-04-15T07:51:21.482Z,7.77
2018-04-15T07:53:49.065Z,6.30
2018-04-15T07:56:17.424Z,6.50
2018-04-15T07:58:44.984Z,5.57
2018-04-15T08:01:12.563Z,6.63
2018-04-15T08:03:40.152Z,6.20
2018-04-15T08:06:08.554Z,5.60
2018-04-15T08:08:36.131Z,6.10
2018-04-15T08:11:03.682Z,5.67
2018-04-15T08:13:31.301Z,5.30
2018-04-15T08:15:58.869Z,5.10
2018-04-15T08:18:26.444Z,4.63
2018-04-15T08:20:54.008Z,4.07
2018-04-15T08:23:21.607Z,3.50
2018-04-15T08:25:49.214Z,3.83
2018-04-15T08:28:17.537Z,4.63
2018-04-15T08:30:45.132Z,3.60
2018-04-15T08:33:12.720Z,4.30
2018-04-15T08:35:41.060Z,3.60
2018-04-15T08:38:09.665Z,4.53
2018-04-15T08:40:37.252Z,3.80
2018-04-15T08:43:05.589Z,3.40
2018-04-15T08:45:33.180Z,2.93
2018-04-15T08:48:01.563Z,3.10
2018-04-15T08:50:29.884Z,3.20
2018-04-15T08:52:57.491Z,3.30
2018-04-15T08:55:25.043Z,3.20
2018-04-15T08:57:52.621Z,3.50
2018-04-15T09:00:20.972Z,3.87
2018-04-15T09:02:48.549Z,3.30
2018-04-15T09:05:16.118Z,3.73
2018-04-15T09:07:44.450Z,3.13
2018-04-15T09:10:12.058Z,3.47
2018-04-15T09:12:40.421Z,3.90
2018-04-15T09:15:08.023Z,3.33
2018-04-15T09:17:35.620Z,2.93
2018-04-15T09:20:03.197Z,3.70
2018-04-15T09:22:30.751Z,3.20
2018-04-15T09:24:58.320Z,2.70
2018-04-15T09:27:25.924Z,2.90
2018-04-15T09:29:54.252Z,3.33
2018-04-15T09:32:21.819Z,2.70
2018-04-15T09:34:49.397Z,2.90
2018-04-15T09:37:16.964Z,2.63
2018-04-15T09:39:45.329Z,4.00
2018-04-15T09:42:12.895Z,3.07
2018-04-15T09:44:40.532Z,3.30
2018-04-15T09:47:08.236Z,2.90
2018-04-15T09:49:36.593Z,2.60
2018-04-15T09:52:04.175Z,2.40
2018-04-15T09:54:32.503Z,2.77
2018-04-15T09:57:00.055Z,2.70
2018-04-15T09:59:27.707Z,2.30
2018-04-15T10:01:55.272Z,2.10
2018-04-15T10:04:22.864Z,2.17
2018-04-15T10:06:50.446Z,3.10
2018-04-15T10:09:18.032Z,2.30
2018-04-15T10:11:45.682Z,2.13
2018-04-15T10:14:14.037Z,2.40
2018-04-15T10:16:41.645Z,2.17
2018-04-15T10:19:09.203Z,2.77
2018-04-15T10:21:36.783Z,2.83
2018-04-15T10:24:04.378Z,2.20
2018-04-15T10:26:31.937Z,2.50
2018-04-15T10:28:59.522Z,3.20
2018-04-15T10:31:27.090Z,3.00
2018-04-15T10:33:55.435Z,2.20
2018-04-15T10:36:23.032Z,1.90
2018-04-15T10:38:51.359Z,2.33
2018-04-15T10:41:18.971Z,2.10
2018-04-15T10:43:46.591Z,1.90
2018-04-15T10:46:14.169Z,2.40
2018-04-15T10:48:41.725Z,1.93
2018-04-15T10:51:09.331Z,2.40
2018-04-15T10:53:36.889Z,1.93
2018-04-15T10:56:05.226Z,2.20
2018-04-15T10:58:32.796Z,1.90
2018-04-15T11:01:00.370Z,2.40
2018-04-15T11:03:28.737Z,2.17
2018-04-15T11:05:56.416Z,1.87
2018-04-15T11:08:23.981Z,1.77
2018-04-15T11:10:52.311Z,2.50
2018-04-15T11:13:19.865Z,2.97
2018-04-15T11:15:47.445Z,2.27
2018-04-15T11:18:15.031Z,3.53
2018-04-15T11:20:42.605Z,2.47
2018-04-15T11:23:10.963Z,3.00
2018-04-15T11:25:38.583Z,2.73
2018-04-15T11:28:06.523Z,3.83
2018-04-15T11:30:34.876Z,2.80
2018-04-15T11:33:02.435Z,3.47
2018-04-15T11:35:30.051Z,2.17
2018-04-15T11:37:58.386Z,2.80
2018-04-15T11:40:26.707Z,2.90
2018-04-15T11:42:54.308Z,1.97
2018-04-15T11:45:21.864Z,2.30
2018-04-15T11:47:49.438Z,2.27
2018-04-15T11:50:16.999Z,2.57
2018-04-15T11:52:44.581Z,1.70
2018-04-15T11:55:12.920Z,3.33
2018-04-15T11:57:40.502Z,2.20
2018-04-15T12:00:08.075Z,2.20
2018-04-15T12:02:36.408Z,2.03
2018-04-15T12:05:03.983Z,2.03
2018-04-15T12:07:31.623Z,2.20
2018-04-15T12:09:59.211Z,2.27
2018-04-15T12:12:26.799Z,2.17
2018-04-15T12:14:55.145Z,4.03
2018-04-15T12:17:22.716Z,2.10
2018-04-15T12:19:50.336Z,2.40
2018-04-15T12:22:17.895Z,3.53
2018-04-15T12:24:45.495Z,3.33
2018-04-15T12:27:13.057Z,2.40
2018-04-15T12:29:40.643Z,3.40
2018-04-15T12:32:08.974Z,1.60
2018-04-15T12:34:36.656Z,2.00
2018-04-15T12:37:04.231Z,1.87
2018-04-15T12:39:31.828Z,3.00
2018-04-15T12:41:59.436Z,2.13
2018-04-15T12:44:27.019Z,2.50
2018-04-15T12:46:54.600Z,2.10
2018-04-15T12:49:22.931Z,2.60
2018-04-15T12:51:50.501Z,2.80
2018-04-15T12:54:18.060Z,2.57
2018-04-15T12:56:45.640Z,2.07
2018-04-15T12:59:13.216Z,1.83
2018-04-15T13:01:41.569Z,2.63
2018-04-15T13:04:09.129Z,2.93
2018-04-15T13:06:36.714Z,3.33
2018-04-15T13:09:05.824Z,3.30
2018-04-15T13:11:34.185Z,2.50
2018-04-15T13:14:01.754Z,2.83
2018-04-15T13:16:30.102Z,2.87
2018-04-15T13:18:57.685Z,2.43
2018-04-15T13:21:25.269Z,2.73
2018-04-15T13:23:53.622Z,3.43
2018-04-15T13:26:21.220Z,3.00
2018-04-15T13:28:48.793Z,2.30
2018-04-15T13:31:16.468Z,2.60
2018-04-15T13:33:44.065Z,2.50
2018-04-15T13:36:11.676Z,2.53
2018-04-15T13:38:39.252Z,2.50
2018-04-15T13:41:06.838Z,2.07
2018-04-15T13:43:35.200Z,2.50
2018-04-15T13:46:02.763Z,2.73
2018-04-15T13:48:30.372Z,2.93
2018-04-15T13:50:58.782Z,2.50
2018-04-15T13:53:26.376Z,2.30
2018-04-15T13:55:53.982Z,2.40
2018-04-15T13:58:22.401Z,2.93
2018-04-15T14:00:49.996Z,2.50
2018-04-15T14:03:17.636Z,2.63
2018-04-15T14:05:45.183Z,3.07
2018-04-15T14:08:12.822Z,4.60
2018-04-15T14:10:40.367Z,2.80
2018-04-15T14:13:08.771Z,2.77
2018-04-15T14:15:36.368Z,2.40
2018-04-15T14:18:03.937Z,3.07
2018-04-15T14:20:31.527Z,2.37
2018-04-15T14:22:59.866Z,2.40
2018-04-15T14:25:27.486Z,3.07
2018-04-15T14:27:55.075Z,2.97
2018-04-15T14:30:22.693Z,3.37
2018-04-15T14:32:51.039Z,3.10
2018-04-15T14:35:18.629Z,3.73
2018-04-15T14:37:46.975Z,4.03
2018-04-15T14:40:14.686Z,2.90
2018-04-15T14:42:42.260Z,5.20
2018-04-15T14:45:09.896Z,7.23
2018-04-15T14:47:38.213Z,8.70
2018-04-15T14:50:06.595Z,2.70
2018-04-15T14:52:34.184Z,3.03
2018-04-15T14:55:01.783Z,5.20
2018-04-15T14:57:30.147Z,4.60
2018-04-15T14:59:57.699Z,2.50
2018-04-15T15:02:25.284Z,3.80
2018-04-15T15:04:53.626Z,2.40
2018-04-15T15:07:21.223Z,2.40
2018-04-15T15:09:49.599Z,3.53
2018-04-15T15:12:17.958Z,2.60
2018-04-15T15:14:45.533Z,3.37
2018-04-15T15:17:13.891Z,3.83
2018-04-15T15:19:41.481Z,7.77
2018-04-15T15:22:09.003Z,3.17
2018-04-15T15:24:36.610Z,4.33
2018-04-15T15:27:04.973Z,4.23
2018-04-15T15:29:33.320Z,3.13
2018-04-15T15:32:00.956Z,4.10
2018-04-15T15:34:28.508Z,5.07
2018-04-15T15:36:56.076Z,3.13
2018-04-15T15:39:23.703Z,4.30
2018-04-15T15:41:52.028Z,3.10
2018-04-15T15:44:19.635Z,3.50
2018-04-15T15:46:47.177Z,3.03
2018-04-15T15:49:14.784Z,2.93
2018-04-15T15:51:42.365Z,2.80
2018-04-15T15:54:09.985Z,2.80
2018-04-15T15:56:38.337Z,3.40
2018-04-15T15:59:06.007Z,3.70
2018-04-15T16:01:33.564Z,4.43
2018-04-15T16:04:01.153Z,3.80
2018-04-15T16:06:29.720Z,5.47
2018-04-15T16:08:57.296Z,3.40
2018-04-15T16:11:25.659Z,4.77
2018-04-15T16:13:53.211Z,3.33
2018-04-15T16:16:20.821Z,2.60
2018-04-15T16:18:48.453Z,2.93
2018-04-15T16:21:16.804Z,4.60
2018-04-15T16:23:44.399Z,3.87
2018-04-15T16:26:11.988Z,2.93
2018-04-15T16:28:39.553Z,2.97
2018-04-15T16:31:07.176Z,3.50
2018-04-15T16:33:34.765Z,9.57
2018-04-15T16:36:03.125Z,93.80
2018-04-15T16:38:31.464Z,25.23
2018-04-15T16:40:59.199Z,14.73
2018-04-15T16:43:26.818Z,7.07
2018-04-15T16:45:54.393Z,4.20
2018-04-15T16:48:22.918Z,27.80
2018-04-15T16:50:50.542Z,7.03
2018-04-15T16:53:18.086Z,4.23
2018-04-15T16:55:45.669Z,3.00
2018-04-15T16:58:13.272Z,4.23
2018-04-15T17:00:40.840Z,2.77
2018-04-15T17:03:08.466Z,3.30
2018-04-15T17:05:36.062Z,3.10
2018-04-15T17:08:03.672Z,3.90
2018-04-15T17:10:32.032Z,3.17
2018-04-15T17:12:59.639Z,4.40
2018-04-15T17:15:27.209Z,3.13
2018-04-15T17:17:54.796Z,3.70
2018-04-15T17:20:22.353Z,3.40
2018-04-15T17:22:49.960Z,3.80
2018-04-15T17:25:17.583Z,3.70
2018-04-15T17:27:45.190Z,3.80
2018-04-15T17:30:12.814Z,3.90
2018-04-15T17:32:40.430Z,3.63
2018-04-15T17:35:08.021Z,4.20
2018-04-15T17:37:35.655Z,4.00
2018-04-15T17:40:03.259Z,4.33
2018-04-15T17:42:30.850Z,4.30
2018-04-15T17:44:59.672Z,4.57
2018-04-15T17:47:27.282Z,4.50
2018-04-15T17:49:54.899Z,4.40
2018-04-15T17:52:22.473Z,3.83
2018-04-15T17:54:50.090Z,4.20
2018-04-15T17:57:18.451Z,4.37
2018-04-15T17:59:46.054Z,5.40
2018-04-15T18:02:13.642Z,5.00
2018-04-15T18:04:41.235Z,5.73
2018-04-15T18:07:08.846Z,4.60
2018-04-15T18:09:36.454Z,4.90
2018-04-15T18:12:04.025Z,4.70
2018-04-15T18:14:31.730Z,5.33
2018-04-15T18:16:59.327Z,4.77
2018-04-15T18:19:27.125Z,4.30
2018-04-15T18:21:55.497Z,4.30
2018-04-15T18:24:23.848Z,7.60
2018-04-15T18:26:51.450Z,5.00
2018-04-15T18:29:19.856Z,4.30
2018-04-15T18:31:47.541Z,5.33
2018-04-15T18:34:15.689Z,4.97
2018-04-15T18:36:43.649Z,5.40
2018-04-15T18:39:11.998Z,5.47
2018-04-15T18:41:39.652Z,6.20
2018-04-15T18:44:08.016Z,6.43
2018-04-15T18:46:35.605Z,7.47
2018-04-15T18:49:03.952Z,6.23
2018-04-15T18:51:31.571Z,5.60
2018-04-15T19:10:14.616Z,6.07
2018-04-15T19:12:42.237Z,5.70
2018-04-15T19:15:10.795Z,6.77
2018-04-15T19:17:38.345Z,6.70
2018-04-15T19:20:05.974Z,6.93
2018-04-15T19:22:34.387Z,8.77
2018-04-15T19:25:02.270Z,7.23
2018-04-15T19:27:29.841Z,6.83
2018-04-15T19:29:57.454Z,7.50
2018-04-15T19:32:25.046Z,9.23
2018-04-15T19:34:52.615Z,7.90
2018-04-15T19:37:20.766Z,7.37
2018-04-15T19:39:48.390Z,6.70
2018-04-15T19:42:17.570Z,5.70
2018-04-15T19:44:45.827Z,5.77
2018-04-15T19:56:58.454Z,4.80
2018-04-15T19:59:26.827Z,4.47
2018-04-15T20:01:55.180Z,5.03
2018-04-15T20:04:22.770Z,6.23
2018-04-15T20:06:51.200Z,4.97
2018-04-15T20:09:18.840Z,5.13
2018-04-15T20:11:49.088Z,4.37
2018-04-15T20:14:24.577Z,4.80
2018-04-15T20:16:53.704Z,5.20
2018-04-15T20:22:06.385Z,4.13
2018-04-15T20:24:34.003Z,5.40
2018-04-15T20:27:01.662Z,5.60
2018-04-15T20:29:29.201Z,5.67
2018-04-15T20:31:57.545Z,5.60
2018-04-15T20:34:25.148Z,6.30
2018-04-15T20:36:53.472Z,6.13
2018-04-15T20:39:21.094Z,6.50
2018-04-15T20:41:48.693Z,6.87
2018-04-15T20:44:16.287Z,6.87
2018-04-15T20:46:43.897Z,6.00
2018-04-15T20:49:12.284Z,5.70
2018-04-15T20:51:39.858Z,5.37
2018-04-15T20:54:07.427Z,5.07
2018-04-15T20:56:35.006Z,5.57
2018-04-15T20:59:02.596Z,6.80
2018-04-15T21:01:30.169Z,5.93
2018-04-15T21:03:57.755Z,5.03
2018-04-15T21:06:25.329Z,5.90
2018-04-15T21:08:52.926Z,5.70
2018-04-15T21:11:21.271Z,7.60
2018-04-15T21:13:48.851Z,4.80
2018-04-15T21:16:16.436Z,5.03
2018-04-15T21:18:44.823Z,5.43
2018-04-15T21:21:13.192Z,4.80
2018-04-15T21:23:41.521Z,4.90
2018-04-15T21:26:09.116Z,4.93
2018-04-15T21:28:36.677Z,4.80
2018-04-15T21:31:04.269Z,4.50
2018-04-15T21:33:31.859Z,4.43
2018-04-15T21:36:00.801Z,4.77
2018-04-15T21:38:29.169Z,6.17
2018-04-15T21:40:56.759Z,5.10
2018-04-15T21:43:24.327Z,4.20
2018-04-15T21:45:51.915Z,4.83
2018-04-15T21:48:19.476Z,5.33
2018-04-15T21:50:47.112Z,6.37
2018-04-15T21:53:14.709Z,5.30
2018-04-15T21:55:42.298Z,5.83
2018-04-15T21:58:09.876Z,5.90
2018-04-15T22:00:38.218Z,6.40
2018-04-15T22:03:05.755Z,6.00
2018-04-15T22:05:33.324Z,5.20
2018-04-15T22:08:00.910Z,5.03
2018-04-15T22:10:28.476Z,4.90
2018-04-15T22:13:07.743Z,5.27
2018-04-15T22:15:36.103Z,6.00
2018-04-15T22:18:03.669Z,5.97
2018-04-15T22:20:32.006Z,6.20
2018-04-15T22:22:59.609Z,4.83
2018-04-15T22:25:27.934Z,5.27
2018-04-15T22:27:55.569Z,5.20
2018-04-15T22:30:23.151Z,5.00
2018-04-15T22:32:50.740Z,4.70
2018-04-15T22:35:18.304Z,5.13
2018-04-15T22:37:45.904Z,4.40
2018-04-15T22:40:14.253Z,4.17
2018-04-15T22:42:41.840Z,4.60
2018-04-15T22:45:10.186Z,4.83
2018-04-15T22:47:52.627Z,4.60
2018-04-15T22:50:20.961Z,5.57
2018-04-15T22:52:48.536Z,4.80
2018-04-15T22:55:16.123Z,5.40
2018-04-15T22:57:44.469Z,4.80
2018-04-15T23:00:12.026Z,5.33
2018-04-15T23:02:39.609Z,5.70
2018-04-15T23:05:07.196Z,6.67
2018-04-15T23:07:34.791Z,6.20
2018-04-15T23:10:02.376Z,6.00
2018-04-15T23:12:29.977Z,6.23
2018-04-15T23:14:58.300Z,6.30
2018-04-15T23:17:25.880Z,6.53
2018-04-15T23:19:53.437Z,7.10
2018-04-15T23:22:21.117Z,6.80
2018-04-15T23:24:48.692Z,7.10
2018-04-15T23:27:17.032Z,8.13
2018-04-15T23:29:44.624Z,8.70
2018-04-15T23:32:12.220Z,8.37
2018-04-15T23:34:39.805Z,7.37
2018-04-15T23:37:07.371Z,7.93
2018-04-15T23:39:35.029Z,12.27
2018-04-15T23:42:02.544Z,9.17
2018-04-15T23:44:30.884Z,7.43
2018-04-15T23:46:58.453Z,8.20
2018-04-15T23:49:26.062Z,9.70
2018-04-15T23:51:53.633Z,8.30
2018-04-15T23:54:21.236Z,7.80
2018-04-15T23:56:54.451Z,8.63
2018-04-15T23:59:22.817Z,9.87
